createdAt,value
2018-05-18T00:01:01.910Z,15.60
2018-05-18T00:03:30.097Z,15.60
2018-05-18T00:05:58.260Z,15.50
2018-05-18T00:08:26.421Z,15.50
2018-05-18T00:10:55.355Z,15.40
2018-05-18T00:13:23.516Z,15.30
2018-05-18T00:15:51.699Z,15.30
2018-05-18T00:18:19.892Z,15.30
2018-05-18T00:20:48.062Z,15.30
2018-05-18T00:23:16.229Z,15.30
2018-05-18T00:25:44.397Z,15.20
2018-05-18T00:28:12.566Z,15.10
2018-05-18T00:30:40.751Z,15.10
2018-05-18T00:33:08.931Z,15.10
2018-05-18T00:35:37.097Z,15.10
2018-05-18T00:38:05.268Z,15.10
2018-05-18T00:40:34.430Z,15.00
2018-05-18T00:43:03.397Z,15.00
2018-05-18T00:45:31.573Z,15.00
2018-05-18T00:47:59.749Z,15.00
2018-05-18T00:50:27.912Z,15.00
2018-05-18T00:52:56.084Z,15.00
2018-05-18T00:55:40.963Z,15.00
2018-05-18T00:58:09.136Z,15.00
2018-05-18T01:00:37.297Z,15.00
2018-05-18T01:03:05.467Z,15.00
2018-05-18T01:05:33.641Z,15.00
2018-05-18T01:08:01.810Z,15.00
2018-05-18T01:10:29.996Z,15.10
2018-05-18T01:12:58.173Z,15.10
2018-05-18T01:15:26.356Z,15.10
2018-05-18T01:17:54.534Z,15.10
2018-05-18T01:20:22.773Z,15.10
2018-05-18T01:22:50.956Z,15.00
2018-05-18T01:25:19.129Z,15.00
2018-05-18T01:27:47.343Z,15.00
2018-05-18T01:30:16.280Z,14.90
2018-05-18T01:32:44.449Z,14.80
2018-05-18T01:35:12.629Z,14.80
2018-05-18T01:37:40.792Z,14.80
2018-05-18T01:40:08.955Z,14.80
2018-05-18T01:42:37.127Z,14.80
2018-05-18T01:45:05.291Z,14.80
2018-05-18T01:47:34.237Z,14.70
2018-05-18T01:50:02.413Z,14.70
2018-05-18T01:52:30.592Z,14.70
2018-05-18T01:54:58.763Z,14.60
2018-05-18T01:57:26.931Z,14.60
2018-05-18T01:59:55.145Z,14.60
2018-05-18T02:02:24.106Z,14.60
2018-05-18T02:04:52.273Z,14.50
2018-05-18T02:07:20.445Z,14.60
2018-05-18T02:09:48.624Z,14.60
2018-05-18T02:12:16.794Z,14.50
2018-05-18T02:14:44.971Z,14.50
2018-05-18T02:17:13.140Z,14.50
2018-05-18T02:19:41.306Z,14.50
2018-05-18T02:22:09.490Z,14.50
2018-05-18T02:24:37.653Z,14.50
2018-05-18T02:27:05.826Z,14.40
2018-05-18T02:29:34.011Z,14.40
2018-05-18T02:32:02.184Z,14.30
2018-05-18T02:34:30.371Z,14.40
2018-05-18T02:36:58.545Z,14.30
2018-05-18T02:39:26.710Z,14.30
2018-05-18T02:41:54.919Z,14.30
2018-05-18T02:44:23.087Z,14.20
2018-05-18T02:46:51.273Z,14.20
2018-05-18T02:49:20.230Z,14.10
2018-05-18T02:51:48.403Z,14.10
2018-05-18T02:54:16.566Z,14.20
2018-05-18T02:56:44.767Z,14.20
2018-05-18T02:59:12.946Z,14.10
2018-05-18T03:01:41.114Z,14.10
2018-05-18T03:04:09.317Z,14.10
2018-05-18T03:06:38.271Z,13.90
2018-05-18T03:09:06.457Z,13.90
2018-05-18T03:11:34.631Z,13.90
2018-05-18T03:14:02.792Z,13.90
2018-05-18T03:16:30.967Z,13.90
2018-05-18T03:18:59.149Z,13.90
2018-05-18T03:21:27.313Z,13.80
2018-05-18T03:23:55.489Z,13.80
2018-05-18T03:26:23.653Z,13.70
2018-05-18T03:28:51.817Z,13.70
2018-05-18T03:31:19.986Z,13.70
2018-05-18T03:33:48.160Z,13.70
2018-05-18T03:36:16.364Z,13.70
2018-05-18T03:38:44.536Z,13.70
2018-05-18T03:41:12.712Z,13.70
2018-05-18T03:43:40.873Z,13.60
2018-05-18T03:46:09.035Z,13.60
2018-05-18T03:48:37.217Z,13.60
2018-05-18T03:51:05.385Z,13.60
2018-05-18T03:53:33.567Z,13.60
2018-05-18T03:56:01.738Z,13.60
2018-05-18T03:58:29.922Z,13.60
2018-05-18T04:00:58.174Z,13.60
2018-05-18T04:03:44.253Z,13.70
2018-05-18T04:06:31.084Z,13.70
2018-05-18T04:08:59.267Z,13.70
2018-05-18T04:11:27.453Z,13.80
2018-05-18T04:13:55.638Z,13.80
2018-05-18T04:16:23.804Z,13.90
2018-05-18T04:18:51.978Z,14.00
2018-05-18T04:21:20.147Z,14.00
2018-05-18T04:23:48.315Z,14.10
2018-05-18T04:26:16.489Z,14.20
2018-05-18T04:28:44.661Z,14.30
2018-05-18T04:31:12.844Z,14.40
2018-05-18T04:33:41.012Z,14.40
2018-05-18T04:36:09.184Z,14.50
2018-05-18T04:38:37.403Z,14.60
2018-05-18T04:41:05.570Z,14.60
2018-05-18T04:43:33.750Z,14.60
2018-05-18T04:46:01.916Z,14.60
2018-05-18T04:48:30.098Z,14.60
2018-05-18T04:50:58.313Z,14.60
2018-05-18T04:53:26.453Z,14.60
2018-05-18T04:55:54.622Z,14.60
2018-05-18T04:58:22.785Z,14.70
2018-05-18T05:00:50.957Z,14.80
2018-05-18T05:03:19.143Z,14.80
2018-05-18T05:05:47.312Z,14.90
2018-05-18T05:08:15.474Z,15.00
2018-05-18T05:10:43.644Z,14.90
2018-05-18T05:13:11.805Z,14.90
2018-05-18T05:15:39.971Z,14.90
2018-05-18T05:18:08.147Z,14.90
2018-05-18T05:20:36.320Z,14.90
2018-05-18T05:23:04.489Z,14.90
2018-05-18T05:25:32.652Z,15.00
2018-05-18T05:28:01.584Z,15.10
2018-05-18T05:30:29.844Z,15.10
2018-05-18T05:32:57.986Z,15.20
2018-05-18T05:35:26.933Z,15.30
2018-05-18T05:37:55.116Z,15.20
2018-05-18T05:40:23.287Z,15.20
2018-05-18T05:42:51.467Z,15.30
2018-05-18T05:45:19.637Z,15.20
2018-05-18T05:47:47.806Z,15.30
2018-05-18T05:50:15.982Z,15.30
2018-05-18T05:52:44.238Z,15.30
2018-05-18T05:55:13.869Z,15.40
2018-05-18T05:57:42.038Z,15.40
2018-05-18T06:00:10.216Z,15.60
2018-05-18T06:02:38.388Z,15.80
2018-05-18T06:05:06.557Z,15.90
2018-05-18T06:07:34.731Z,16.10
2018-05-18T06:10:02.902Z,16.10
2018-05-18T06:12:31.076Z,16.10
2018-05-18T06:14:59.250Z,16.20
2018-05-18T06:17:27.433Z,16.30
2018-05-18T06:19:55.618Z,16.40
2018-05-18T06:22:23.787Z,16.50
2018-05-18T06:24:51.957Z,16.70
2018-05-18T06:27:20.124Z,16.80
2018-05-18T06:29:48.292Z,16.90
2018-05-18T06:32:16.465Z,17.10
2018-05-18T06:34:44.734Z,17.10
2018-05-18T06:37:12.845Z,17.20
2018-05-18T06:39:41.021Z,17.30
2018-05-18T06:42:09.215Z,17.40
2018-05-18T06:44:37.399Z,17.60
2018-05-18T06:47:06.342Z,17.80
2018-05-18T06:49:34.535Z,17.80
2018-05-18T06:52:02.709Z,17.90
2018-05-18T06:54:30.870Z,18.00
2018-05-18T06:56:59.047Z,18.10
2018-05-18T06:59:27.208Z,18.20
2018-05-18T07:01:55.379Z,18.30
2018-05-18T07:04:23.541Z,18.60
2018-05-18T07:06:51.711Z,18.80
2018-05-18T07:09:19.895Z,18.90
2018-05-18T07:11:48.076Z,19.00
2018-05-18T07:14:16.272Z,19.10
2018-05-18T07:16:44.432Z,19.20
2018-05-18T07:19:12.596Z,19.30
2018-05-18T07:21:40.770Z,19.40
2018-05-18T07:24:08.940Z,19.50
2018-05-18T07:26:37.233Z,19.60
2018-05-18T07:29:05.401Z,19.80
2018-05-18T07:31:33.605Z,20.00
2018-05-18T07:34:01.776Z,20.10
2018-05-18T07:36:29.944Z,20.30
2018-05-18T07:38:58.188Z,20.20
2018-05-18T07:41:26.293Z,20.30
2018-05-18T07:43:54.513Z,20.40
2018-05-18T07:46:22.658Z,20.30
2018-05-18T07:51:09.969Z,20.40
2018-05-18T07:53:38.237Z,20.30
2018-05-18T07:56:06.342Z,20.40
2018-05-18T07:58:34.513Z,20.40
2018-05-18T08:01:02.704Z,20.50
2018-05-18T08:03:31.644Z,20.90
2018-05-18T08:05:59.820Z,20.80
2018-05-18T08:08:28.070Z,21.10
2018-05-18T08:10:56.259Z,21.10
2018-05-18T08:13:24.443Z,21.30
2018-05-18T08:15:52.652Z,21.30
2018-05-18T08:18:20.845Z,21.30
2018-05-18T08:20:49.023Z,21.20
2018-05-18T08:23:17.964Z,21.20
2018-05-18T08:25:46.131Z,21.20
2018-05-18T08:28:14.309Z,21.10
2018-05-18T08:31:00.937Z,21.20
2018-05-18T08:33:29.107Z,21.20
2018-05-18T08:35:57.293Z,21.20
2018-05-18T08:38:25.465Z,21.10
2018-05-18T08:40:53.637Z,21.20
2018-05-18T08:43:21.808Z,21.20
2018-05-18T08:45:49.987Z,21.20
2018-05-18T08:48:18.167Z,21.20
2018-05-18T08:50:46.384Z,21.20
2018-05-18T08:53:15.322Z,21.10
2018-05-18T08:55:43.495Z,21.10
2018-05-18T08:58:11.669Z,21.10
2018-05-18T09:00:39.848Z,21.10
2018-05-18T09:03:08.215Z,21.20
2018-05-18T09:05:37.310Z,21.60
2018-05-18T09:08:05.489Z,21.50
2018-05-18T09:10:33.665Z,21.60
2018-05-18T09:13:01.839Z,21.60
2018-05-18T09:15:30.262Z,21.50
2018-05-18T09:17:59.306Z,21.70
2018-05-18T09:20:27.479Z,21.70
2018-05-18T09:22:55.653Z,21.80
2018-05-18T09:25:23.822Z,21.50
2018-05-18T09:27:51.990Z,21.30
2018-05-18T09:30:20.168Z,21.00
2018-05-18T09:32:48.337Z,20.70
2018-05-18T09:35:16.508Z,20.70
2018-05-18T09:37:44.697Z,20.60
2018-05-18T09:40:12.857Z,20.80
2018-05-18T09:42:41.024Z,20.90
2018-05-18T09:45:09.245Z,20.90
2018-05-18T09:47:37.382Z,20.80
2018-05-18T09:50:05.546Z,20.60
2018-05-18T09:52:34.469Z,20.50
2018-05-18T09:55:02.777Z,20.50
2018-05-18T09:57:31.622Z,20.40
2018-05-18T09:59:59.796Z,20.40
2018-05-18T10:02:27.968Z,20.40
2018-05-18T10:04:56.136Z,20.40
2018-05-18T10:07:24.311Z,20.40
2018-05-18T10:09:52.541Z,20.60
2018-05-18T10:12:20.728Z,20.70
2018-05-18T10:14:48.927Z,20.90
2018-05-18T10:17:17.866Z,21.40
2018-05-18T10:19:46.052Z,21.40
2018-05-18T10:22:14.227Z,21.40
2018-05-18T10:24:42.420Z,21.60
2018-05-18T10:27:10.604Z,21.70
2018-05-18T10:29:39.565Z,22.10
2018-05-18T10:32:07.737Z,22.00
2018-05-18T10:34:35.912Z,22.20
2018-05-18T10:37:04.081Z,22.40
2018-05-18T10:39:33.138Z,22.50
2018-05-18T10:42:01.252Z,22.50
2018-05-18T10:44:29.421Z,22.60
2018-05-18T10:46:57.589Z,22.80
2018-05-18T10:49:25.765Z,22.80
2018-05-18T10:51:53.949Z,23.10
2018-05-18T10:54:22.122Z,23.20
2018-05-18T10:56:50.296Z,23.20
2018-05-18T10:59:19.078Z,23.20
2018-05-18T11:01:47.242Z,23.30
2018-05-18T11:04:15.620Z,23.50
2018-05-18T11:06:43.792Z,23.40
2018-05-18T11:09:11.962Z,23.20
2018-05-18T11:11:40.140Z,23.10
2018-05-18T11:14:08.443Z,23.00
2018-05-18T11:16:36.551Z,22.90
2018-05-18T11:19:05.658Z,22.80
2018-05-18T11:21:34.591Z,22.90
2018-05-18T11:24:02.758Z,22.80
2018-05-18T11:26:30.930Z,22.80
2018-05-18T11:28:59.093Z,22.80
2018-05-18T11:31:27.301Z,22.80
2018-05-18T11:33:55.468Z,22.80
2018-05-18T11:36:23.644Z,22.90
2018-05-18T11:38:51.812Z,22.60
2018-05-18T11:41:19.985Z,22.60
2018-05-18T11:43:48.160Z,22.90
2018-05-18T11:46:16.332Z,23.10
2018-05-18T11:48:50.782Z,23.10
2018-05-18T11:51:19.338Z,23.10
2018-05-18T11:53:47.760Z,23.30
2018-05-18T11:56:19.398Z,23.40
2018-05-18T11:58:47.576Z,23.40
2018-05-18T12:01:15.765Z,23.50
2018-05-18T12:03:47.584Z,23.60
2018-05-18T12:06:18.632Z,23.80
2018-05-18T12:08:46.802Z,23.80
2018-05-18T12:11:15.377Z,24.00
2018-05-18T12:13:44.909Z,24.50
2018-05-18T12:16:13.925Z,24.80
2018-05-18T12:18:42.195Z,24.70
2018-05-18T12:21:10.937Z,24.80
2018-05-18T12:23:39.949Z,24.80
2018-05-18T12:26:08.232Z,24.80
2018-05-18T12:28:41.353Z,24.50
2018-05-18T12:31:10.308Z,24.40
2018-05-18T12:33:38.480Z,24.40
2018-05-18T12:36:06.702Z,24.50
2018-05-18T12:38:35.645Z,25.10
2018-05-18T12:41:03.847Z,25.00
2018-05-18T12:43:32.025Z,25.20
2018-05-18T12:46:01.714Z,26.20
2018-05-18T12:48:29.889Z,26.20
2018-05-18T12:50:58.056Z,26.80
2018-05-18T12:53:26.230Z,27.10
2018-05-18T12:55:54.408Z,27.20
2018-05-18T12:58:22.568Z,27.40
2018-05-18T13:00:50.748Z,28.10
2018-05-18T13:03:18.926Z,28.40
2018-05-18T13:05:47.114Z,28.90
2018-05-18T13:08:15.329Z,31.30
2018-05-18T13:10:44.245Z,35.40
2018-05-18T13:13:12.420Z,35.30
2018-05-18T13:15:40.586Z,36.50
2018-05-18T13:18:08.761Z,36.50
2018-05-18T13:20:36.958Z,37.20
2018-05-18T13:23:05.143Z,38.40
2018-05-18T13:25:33.328Z,38.40
2018-05-18T13:28:01.505Z,38.40
2018-05-18T13:30:29.734Z,38.30
2018-05-18T13:32:57.889Z,39.30
2018-05-18T13:35:26.844Z,39.70
2018-05-18T13:37:55.029Z,39.70
2018-05-18T13:40:23.240Z,38.00
2018-05-18T13:42:52.356Z,33.80
2018-05-18T13:45:20.521Z,33.70
2018-05-18T13:47:48.694Z,32.60
2018-05-18T13:50:16.869Z,33.20
2018-05-18T13:52:45.040Z,34.60
2018-05-18T13:55:13.218Z,35.60
2018-05-18T13:57:41.389Z,35.70
2018-05-18T14:00:09.571Z,35.40
2018-05-18T14:02:37.737Z,35.80
2018-05-18T14:05:06.673Z,36.50
2018-05-18T14:07:34.852Z,36.40
2018-05-18T14:10:03.020Z,36.00
2018-05-18T14:12:31.228Z,34.60
2018-05-18T14:15:00.181Z,31.90
2018-05-18T14:17:28.368Z,31.80
2018-05-18T14:19:56.553Z,30.80
2018-05-18T14:22:24.726Z,29.40
2018-05-18T14:24:52.894Z,28.50
2018-05-18T14:27:21.066Z,27.70
2018-05-18T14:29:49.244Z,26.90
2018-05-18T14:32:17.428Z,26.50
2018-05-18T14:34:45.597Z,25.90
2018-05-18T14:37:13.767Z,25.30
2018-05-18T14:39:41.932Z,24.50
2018-05-18T14:42:10.119Z,23.80
2018-05-18T14:44:38.302Z,23.00
2018-05-18T14:47:06.498Z,22.00
2018-05-18T14:49:35.449Z,20.50
